sensor_id;sensor_type;location;lat;lon;timestamp;pressure;altitude;pressure_sealevel;temperature;humidity
24746;BME280;12845;52.042;6.838;2023-02-23T00:01:47;-18245.69;;;8.08;100.00
24746;BME280;12845;52.042;6.838;2023-02-23T00:04:13;-18245.03;;;8.06;100.00
24746;BME280;12845;52.042;6.838;2023-02-23T00:06:38;-18245.03;;;8.06;100.00
24746;BME280;12845;52.042;6.838;2023-02-23T00:09:04;-18245.03;;;8.06;100.00
24746;BME280;12845;52.042;6.838;2023-02-23T00:11:47;-18245.28;;;8.07;100.00
24746;BME280;12845;52.042;6.838;2023-02-23T00:14:12;-18245.03;;;8.06;100.00
24746;BME280;12845;52.042;6.838;2023-02-23T00:16:37;-18244.88;;;8.05;100.00
24746;BME280;12845;52.042;6.838;2023-02-23T00:19:03;-18244.59;;;8.04;100.00
24746;BME280;12845;52.042;6.838;2023-02-23T00:21:31;-18244.31;;;8.03;100.00
24746;BME280;12845;52.042;6.838;2023-02-23T00:24:02;-18244.47;;;8.04;100.00
24746;BME280;12845;52.042;6.838;2023-02-23T00:26:29;-18244.47;;;8.04;100.00
24746;BME280;12845;52.042;6.838;2023-02-23T00:28:56;-18244.06;;;8.02;100.00
24746;BME280;12845;52.042;6.838;2023-02-23T00:31:22;-18243.09;;;7.99;100.00
24746;BME280;12845;52.042;6.838;2023-02-23T00:33:50;-18243.63;;;8.01;100.00
24746;BME280;12845;52.042;6.838;2023-02-23T00:36:18;-18242.81;;;7.98;100.00
24746;BME280;12845;52.042;6.838;2023-02-23T00:38:43;-18242.81;;;7.98;100.00
24746;BME280;12845;52.042;6.838;2023-02-23T00:41:13;-18243.38;;;8.00;100.00
24746;BME280;12845;52.042;6.838;2023-02-23T00:43:41;-18243.38;;;8.00;100.00
24746;BME280;12845;52.042;6.838;2023-02-23T00:46:11;-18242.81;;;7.98;100.00
24746;BME280;12845;52.042;6.838;2023-02-23T00:48:36;-18242.81;;;7.98;100.00
24746;BME280;12845;52.042;6.838;2023-02-23T00:51:02;-18243.09;;;7.99;100.00
24746;BME280;12845;52.042;6.838;2023-02-23T00:53:28;-18242.25;;;7.96;100.00
24746;BME280;12845;52.042;6.838;2023-02-23T00:55:53;-18242.25;;;7.96;100.00
24746;BME280;12845;52.042;6.838;2023-02-23T00:58:20;-18242.00;;;7.95;100.00
24746;BME280;12845;52.042;6.838;2023-02-23T01:00:45;-18241.84;;;7.94;100.00
24746;BME280;12845;52.042;6.838;2023-02-23T01:03:10;-18242.13;;;7.95;100.00
24746;BME280;12845;52.042;6.838;2023-02-23T01:05:36;-18241.72;;;7.94;100.00
24746;BME280;12845;52.042;6.838;2023-02-23T01:08:01;-18241.72;;;7.94;100.00
24746;BME280;12845;52.042;6.838;2023-02-23T01:10:26;-18242.25;;;7.96;100.00
24746;BME280;12845;52.042;6.838;2023-02-23T01:12:51;-18242.13;;;7.95;100.00
24746;BME280;12845;52.042;6.838;2023-02-23T01:15:18;-18242.81;;;7.98;100.00
24746;BME280;12845;52.042;6.838;2023-02-23T01:17:44;-18242.53;;;7.97;100.00
24746;BME280;12845;52.042;6.838;2023-02-23T01:20:10;-18241.84;;;7.94;100.00
24746;BME280;12845;52.042;6.838;2023-02-23T01:22:48;-18241.72;;;7.94;100.00
24746;BME280;12845;52.042;6.838;2023-02-23T01:25:14;-18241.72;;;7.94;100.00
24746;BME280;12845;52.042;6.838;2023-02-23T01:27:40;-18242.00;;;7.95;100.00
24746;BME280;12845;52.042;6.838;2023-02-23T01:30:06;-18242.25;;;7.96;100.00
24746;BME280;12845;52.042;6.838;2023-02-23T01:32:33;-18241.31;;;7.92;100.00
24746;BME280;12845;52.042;6.838;2023-02-23T01:34:58;-18241.72;;;7.94;100.00
24746;BME280;12845;52.042;6.838;2023-02-23T01:37:24;-18241.56;;;7.93;100.00
24746;BME280;12845;52.042;6.838;2023-02-23T01:39:49;-18241.44;;;7.93;100.00
24746;BME280;12845;52.042;6.838;2023-02-23T01:42:14;-18241.44;;;7.93;100.00
24746;BME280;12845;52.042;6.838;2023-02-23T01:47:05;-18241.16;;;7.91;100.00
24746;BME280;12845;52.042;6.838;2023-02-23T01:49:30;-18241.16;;;7.91;100.00
24746;BME280;12845;52.042;6.838;2023-02-23T01:52:02;-18241.16;;;7.91;100.00
24746;BME280;12845;52.042;6.838;2023-02-23T01:54:36;-18241.03;;;7.91;100.00
24746;BME280;12845;52.042;6.838;2023-02-23T01:57:02;-18240.34;;;7.88;100.00
24746;BME280;12845;52.042;6.838;2023-02-23T01:59:34;-18240.34;;;7.88;100.00
24746;BME280;12845;52.042;6.838;2023-02-23T02:02:01;-18240.06;;;7.87;100.00
24746;BME280;12845;52.042;6.838;2023-02-23T02:04:29;-18239.50;;;7.85;100.00
24746;BME280;12845;52.042;6.838;2023-02-23T02:06:57;-18239.09;;;7.84;100.00
24746;BME280;12845;52.042;6.838;2023-02-23T02:09:25;-18239.22;;;7.84;100.00
24746;BME280;12845;52.042;6.838;2023-02-23T02:11:52;-18238.69;;;7.82;100.00
24746;BME280;12845;52.042;6.838;2023-02-23T02:14:28;-18239.78;;;7.86;100.00
24746;BME280;12845;52.042;6.838;2023-02-23T02:22:22;-18238.41;;;7.81;100.00
24746;BME280;12845;52.042;6.838;2023-02-23T02:32:45;-18237.31;;;7.77;100.00
24746;BME280;12845;52.042;6.838;2023-02-23T02:38:09;-18237.03;;;7.76;100.00
24746;BME280;12845;52.042;6.838;2023-02-23T02:46:02;-18236.75;;;7.75;100.00
24746;BME280;12845;52.042;6.838;2023-02-23T02:48:48;-18235.94;;;7.72;100.00
24746;BME280;12845;52.042;6.838;2023-02-23T02:51:23;-18234.28;;;7.66;100.00
24746;BME280;12845;52.042;6.838;2023-02-23T02:56:18;-18232.22;;;7.58;100.00
24746;BME280;12845;52.042;6.838;2023-02-23T02:58:46;-18232.22;;;7.58;100.00
24746;BME280;12845;52.042;6.838;2023-02-23T03:01:15;-18231.53;;;7.56;100.00
24746;BME280;12845;52.042;6.838;2023-02-23T03:04:00;-18231.09;;;7.54;100.00
24746;BME280;12845;52.042;6.838;2023-02-23T03:06:46;-18231.53;;;7.56;100.00
24746;BME280;12845;52.042;6.838;2023-02-23T03:12:24;-18231.53;;;7.56;100.00
24746;BME280;12845;52.042;6.838;2023-02-23T03:21:07;-18231.25;;;7.55;100.00
24746;BME280;12845;52.042;6.838;2023-02-23T03:26:41;-18230.00;;;7.50;100.00
24746;BME280;12845;52.042;6.838;2023-02-23T03:29:43;-18230.28;;;7.51;100.00
24746;BME280;12845;52.042;6.838;2023-02-23T03:32:34;-18230.13;;;7.51;100.00
24746;BME280;12845;52.042;6.838;2023-02-23T03:35:30;-18229.31;;;7.47;100.00
24746;BME280;12845;52.042;6.838;2023-02-23T03:38:18;-18229.59;;;7.49;100.00
24746;BME280;12845;52.042;6.838;2023-02-23T03:41:05;-18229.59;;;7.49;100.00
24746;BME280;12845;52.042;6.838;2023-02-23T03:43:52;-18230.00;;;7.50;100.00
24746;BME280;12845;52.042;6.838;2023-02-23T03:46:38;-18229.03;;;7.46;100.00
24746;BME280;12845;52.042;6.838;2023-02-23T03:49:23;-18228.50;;;7.44;100.00
24746;BME280;12845;52.042;6.838;2023-02-23T03:52:14;-18228.50;;;7.44;100.00
24746;BME280;12845;52.042;6.838;2023-02-23T03:54:59;-18228.06;;;7.43;100.00
24746;BME280;12845;52.042;6.838;2023-02-23T03:57:44;-18227.25;;;7.40;100.00
24746;BME280;12845;52.042;6.838;2023-02-23T04:00:31;-18226.97;;;7.39;100.00
24746;BME280;12845;52.042;6.838;2023-02-23T04:03:17;-18227.53;;;7.41;100.00
24746;BME280;12845;52.042;6.838;2023-02-23T04:06:02;-18226.84;;;7.38;100.00
24746;BME280;12845;52.042;6.838;2023-02-23T04:08:47;-18227.53;;;7.41;100.00
24746;BME280;12845;52.042;6.838;2023-02-23T04:14:40;-18227.66;;;7.41;100.00
24746;BME280;12845;52.042;6.838;2023-02-23T04:17:07;-18228.34;;;7.44;100.00
24746;BME280;12845;52.042;6.838;2023-02-23T04:19:33;-18227.38;;;7.40;100.00
24746;BME280;12845;52.042;6.838;2023-02-23T04:21:58;-18227.25;;;7.40;100.00
24746;BME280;12845;52.042;6.838;2023-02-23T04:24:23;-18227.66;;;7.41;100.00
24746;BME280;12845;52.042;6.838;2023-02-23T04:26:49;-18227.38;;;7.40;100.00
24746;BME280;12845;52.042;6.838;2023-02-23T04:29:14;-18226.97;;;7.39;100.00
24746;BME280;12845;52.042;6.838;2023-02-23T04:31:39;-18227.13;;;7.39;100.00
24746;BME280;12845;52.042;6.838;2023-02-23T04:34:05;-18226.00;;;7.35;100.00
24746;BME280;12845;52.042;6.838;2023-02-23T04:36:30;-18226.00;;;7.35;100.00
24746;BME280;12845;52.042;6.838;2023-02-23T04:38:56;-18225.72;;;7.34;100.00
24746;BME280;12845;52.042;6.838;2023-02-23T04:41:21;-18225.72;;;7.34;100.00
24746;BME280;12845;52.042;6.838;2023-02-23T04:43:46;-18225.88;;;7.35;100.00
24746;BME280;12845;52.042;6.838;2023-02-23T04:46:12;-18226.69;;;7.38;100.00
24746;BME280;12845;52.042;6.838;2023-02-23T04:48:37;-18225.31;;;7.33;100.00
24746;BME280;12845;52.042;6.838;2023-02-23T04:51:03;-18225.03;;;7.32;100.00
24746;BME280;12845;52.042;6.838;2023-02-23T04:53:28;-18224.34;;;7.29;100.00
24746;BME280;12845;52.042;6.838;2023-02-23T04:55:53;-18225.03;;;7.32;100.00
24746;BME280;12845;52.042;6.838;2023-02-23T04:58:18;-18225.03;;;7.32;100.00
24746;BME280;12845;52.042;6.838;2023-02-23T05:00:44;-18225.19;;;7.32;100.00
24746;BME280;12845;52.042;6.838;2023-02-23T05:03:09;-18223.53;;;7.26;100.00
24746;BME280;12845;52.042;6.838;2023-02-23T05:05:36;-18223.94;;;7.28;100.00
24746;BME280;12845;52.042;6.838;2023-02-23T05:08:01;-18224.63;;;7.30;100.00
24746;BME280;12845;52.042;6.838;2023-02-23T05:10:26;-18223.66;;;7.27;100.00
24746;BME280;12845;52.042;6.838;2023-02-23T05:12:53;-18222.69;;;7.23;100.00
24746;BME280;12845;52.042;6.838;2023-02-23T05:15:18;-18222.16;;;7.21;100.00
24746;BME280;12845;52.042;6.838;2023-02-23T05:17:44;-18221.59;;;7.19;100.00
24746;BME280;12845;52.042;6.838;2023-02-23T05:20:09;-18221.75;;;7.19;100.00
24746;BME280;12845;52.042;6.838;2023-02-23T05:22:35;-18221.06;;;7.17;100.00
24746;BME280;12845;52.042;6.838;2023-02-23T05:25:00;-18220.91;;;7.16;100.00
24746;BME280;12845;52.042;6.838;2023-02-23T05:27:26;-18220.38;;;7.14;100.00
24746;BME280;12845;52.042;6.838;2023-02-23T05:29:51;-18221.31;;;7.18;100.00
24746;BME280;12845;52.042;6.838;2023-02-23T05:32:16;-18221.19;;;7.17;100.00
24746;BME280;12845;52.042;6.838;2023-02-23T05:34:42;-18220.09;;;7.13;100.00
24746;BME280;12845;52.042;6.838;2023-02-23T05:37:07;-18219.81;;;7.12;100.00
24746;BME280;12845;52.042;6.838;2023-02-23T05:39:32;-18220.38;;;7.14;100.00
24746;BME280;12845;52.042;6.838;2023-02-23T05:41:57;-18220.91;;;7.16;100.00
24746;BME280;12845;52.042;6.838;2023-02-23T05:44:23;-18219.66;;;7.12;100.00
24746;BME280;12845;52.042;6.838;2023-02-23T05:46:49;-18219.25;;;7.10;100.00
24746;BME280;12845;52.042;6.838;2023-02-23T05:49:14;-18219.25;;;7.10;100.00
24746;BME280;12845;52.042;6.838;2023-02-23T05:51:39;-18219.13;;;7.10;100.00
24746;BME280;12845;52.042;6.838;2023-02-23T05:54:04;-18219.66;;;7.12;100.00
24746;BME280;12845;52.042;6.838;2023-02-23T05:56:30;-18219.13;;;7.10;100.00
24746;BME280;12845;52.042;6.838;2023-02-23T05:58:56;-18217.88;;;7.05;100.00
24746;BME280;12845;52.042;6.838;2023-02-23T06:01:22;-18216.78;;;7.01;100.00
24746;BME280;12845;52.042;6.838;2023-02-23T06:03:47;-18216.09;;;6.98;100.00
24746;BME280;12845;52.042;6.838;2023-02-23T06:06:13;-18217.47;;;7.04;100.00
24746;BME280;12845;52.042;6.838;2023-02-23T06:08:38;-18217.31;;;7.03;100.00
24746;BME280;12845;52.042;6.838;2023-02-23T06:11:04;-18216.78;;;7.01;100.00
24746;BME280;12845;52.042;6.838;2023-02-23T06:13:29;-18217.19;;;7.03;100.00
24746;BME280;12845;52.042;6.838;2023-02-23T06:15:55;-18215.53;;;6.96;100.00
24746;BME280;12845;52.042;6.838;2023-02-23T06:18:21;-18215.81;;;6.97;100.00
24746;BME280;12845;52.042;6.838;2023-02-23T06:20:46;-18215.81;;;6.97;100.00
24746;BME280;12845;52.042;6.838;2023-02-23T06:23:12;-18217.47;;;7.04;100.00
24746;BME280;12845;52.042;6.838;2023-02-23T06:25:39;-18216.91;;;7.01;100.00
24746;BME280;12845;52.042;6.838;2023-02-23T06:28:05;-18215.53;;;6.96;100.00
24746;BME280;12845;52.042;6.838;2023-02-23T06:30:31;-18214.84;;;6.94;100.00
24746;BME280;12845;52.042;6.838;2023-02-23T06:32:56;-18214.72;;;6.93;100.00
24746;BME280;12845;52.042;6.838;2023-02-23T06:35:22;-18213.88;;;6.90;100.00
24746;BME280;12845;52.042;6.838;2023-02-23T06:37:48;-18212.78;;;6.86;100.00
24746;BME280;12845;52.042;6.838;2023-02-23T06:40:13;-18213.06;;;6.87;100.00
24746;BME280;12845;52.042;6.838;2023-02-23T06:42:38;-18212.22;;;6.84;100.00
24746;BME280;12845;52.042;6.838;2023-02-23T06:45:04;-18211.81;;;6.83;100.00
24746;BME280;12845;52.042;6.838;2023-02-23T06:47:29;-18211.41;;;6.81;100.00
24746;BME280;12845;52.042;6.838;2023-02-23T06:49:54;-18211.41;;;6.81;100.00
24746;BME280;12845;52.042;6.838;2023-02-23T06:52:19;-18211.41;;;6.81;100.00
24746;BME280;12845;52.042;6.838;2023-02-23T06:54:45;-18211.53;;;6.82;100.00
24746;BME280;12845;52.042;6.838;2023-02-23T06:57:12;-18210.84;;;6.79;100.00
24746;BME280;12845;52.042;6.838;2023-02-23T06:59:37;-18210.56;;;6.78;100.00
24746;BME280;12845;52.042;6.838;2023-02-23T07:02:03;-18211.69;;;6.82;100.00
24746;BME280;12845;52.042;6.838;2023-02-23T07:06:58;-18211.13;;;6.80;100.00
24746;BME280;12845;52.042;6.838;2023-02-23T07:09:24;-18211.00;;;6.80;100.00
24746;BME280;12845;52.042;6.838;2023-02-23T07:11:49;-18211.00;;;6.80;100.00
24746;BME280;12845;52.042;6.838;2023-02-23T07:14:14;-18211.41;;;6.81;100.00
24746;BME280;12845;52.042;6.838;2023-02-23T07:16:40;-18211.94;;;6.83;100.00
24746;BME280;12845;52.042;6.838;2023-02-23T07:19:06;-18211.81;;;6.83;100.00
24746;BME280;12845;52.042;6.838;2023-02-23T07:21:31;-18212.09;;;6.84;100.00
24746;BME280;12845;52.042;6.838;2023-02-23T07:23:57;-18212.09;;;6.84;100.00
24746;BME280;12845;52.042;6.838;2023-02-23T07:26:22;-18211.00;;;6.80;100.00
24746;BME280;12845;52.042;6.838;2023-02-23T07:28:48;-18211.53;;;6.82;100.00
24746;BME280;12845;52.042;6.838;2023-02-23T07:31:13;-18211.25;;;6.81;100.00
24746;BME280;12845;52.042;6.838;2023-02-23T07:33:38;-18211.13;;;6.80;100.00
24746;BME280;12845;52.042;6.838;2023-02-23T07:36:04;-18210.31;;;6.77;100.00
24746;BME280;12845;52.042;6.838;2023-02-23T07:38:29;-18210.56;;;6.78;100.00
24746;BME280;12845;52.042;6.838;2023-02-23T07:40:55;-18210.31;;;6.77;100.00
24746;BME280;12845;52.042;6.838;2023-02-23T07:43:20;-18209.59;;;6.74;100.00
24746;BME280;12845;52.042;6.838;2023-02-23T07:45:46;-18209.19;;;6.73;100.00
24746;BME280;12845;52.042;6.838;2023-02-23T07:48:12;-18210.84;;;6.79;100.00
24746;BME280;12845;52.042;6.838;2023-02-23T07:50:38;-18211.41;;;6.81;100.00
24746;BME280;12845;52.042;6.838;2023-02-23T07:53:03;-18209.75;;;6.75;100.00
24746;BME280;12845;52.042;6.838;2023-02-23T07:55:28;-18210.84;;;6.79;100.00
24746;BME280;12845;52.042;6.838;2023-02-23T07:57:54;-18211.53;;;6.82;100.00
24746;BME280;12845;52.042;6.838;2023-02-23T08:00:19;-18211.94;;;6.83;100.00
24746;BME280;12845;52.042;6.838;2023-02-23T08:02:44;-18211.69;;;6.82;100.00
24746;BME280;12845;52.042;6.838;2023-02-23T08:05:10;-18211.25;;;6.81;100.00
24746;BME280;12845;52.042;6.838;2023-02-23T08:07:35;-18210.16;;;6.76;100.00
24746;BME280;12845;52.042;6.838;2023-02-23T08:10:00;-18210.72;;;6.78;100.00
24746;BME280;12845;52.042;6.838;2023-02-23T08:12:26;-18209.47;;;6.74;100.00
24746;BME280;12845;52.042;6.838;2023-02-23T08:14:51;-18208.38;;;6.70;100.00
24746;BME280;12845;52.042;6.838;2023-02-23T08:17:20;-18208.91;;;6.72;100.00
24746;BME280;12845;52.042;6.838;2023-02-23T08:19:45;-18209.06;;;6.72;100.00
24746;BME280;12845;52.042;6.838;2023-02-23T08:22:11;-18208.09;;;6.69;100.00
24746;BME280;12845;52.042;6.838;2023-02-23T08:24:36;-18207.81;;;6.68;100.00
24746;BME280;12845;52.042;6.838;2023-02-23T08:27:02;-18207.28;;;6.66;100.00
24746;BME280;12845;52.042;6.838;2023-02-23T08:29:28;-18207.28;;;6.66;100.00
24746;BME280;12845;52.042;6.838;2023-02-23T08:31:53;-18207.69;;;6.67;100.00
24746;BME280;12845;52.042;6.838;2023-02-23T08:34:20;-18207.28;;;6.66;100.00
24746;BME280;12845;52.042;6.838;2023-02-23T08:36:46;-18208.66;;;6.71;100.00
24746;BME280;12845;52.042;6.838;2023-02-23T08:39:12;-18208.09;;;6.69;100.00
24746;BME280;12845;52.042;6.838;2023-02-23T08:41:37;-18207.81;;;6.68;100.00
24746;BME280;12845;52.042;6.838;2023-02-23T08:44:03;-18208.91;;;6.72;100.00
24746;BME280;12845;52.042;6.838;2023-02-23T08:46:28;-18210.31;;;6.77;100.00
24746;BME280;12845;52.042;6.838;2023-02-23T08:48:54;-18211.13;;;6.80;100.00
24746;BME280;12845;52.042;6.838;2023-02-23T08:51:19;-18210.31;;;6.77;100.00
24746;BME280;12845;52.042;6.838;2023-02-23T08:53:44;-18209.88;;;6.75;100.00
24746;BME280;12845;52.042;6.838;2023-02-23T08:56:10;-18208.78;;;6.71;100.00
24746;BME280;12845;52.042;6.838;2023-02-23T08:58:35;-18207.28;;;6.66;100.00
24746;BME280;12845;52.042;6.838;2023-02-23T09:01:00;-18207.00;;;6.65;100.00
24746;BME280;12845;52.042;6.838;2023-02-23T09:03:26;-18207.41;;;6.66;100.00
24746;BME280;12845;52.042;6.838;2023-02-23T09:05:54;-18208.09;;;6.69;100.00
24746;BME280;12845;52.042;6.838;2023-02-23T09:08:19;-18207.53;;;6.67;100.00
24746;BME280;12845;52.042;6.838;2023-02-23T09:10:45;-18208.22;;;6.69;100.00
24746;BME280;12845;52.042;6.838;2023-02-23T09:13:11;-18210.03;;;6.76;100.00
24746;BME280;12845;52.042;6.838;2023-02-23T09:15:39;-18211.13;;;6.80;100.00
24746;BME280;12845;52.042;6.838;2023-02-23T09:18:05;-18211.94;;;6.83;100.00
24746;BME280;12845;52.042;6.838;2023-02-23T09:20:31;-18212.50;;;6.85;100.00
24746;BME280;12845;52.042;6.838;2023-02-23T09:22:56;-18210.31;;;6.77;100.00
24746;BME280;12845;52.042;6.838;2023-02-23T09:25:22;-18211.13;;;6.80;100.00
24746;BME280;12845;52.042;6.838;2023-02-23T09:27:48;-18213.06;;;6.87;100.00
24746;BME280;12845;52.042;6.838;2023-02-23T09:30:14;-18212.50;;;6.85;100.00
24746;BME280;12845;52.042;6.838;2023-02-23T09:32:45;-18213.34;;;6.88;100.00
24746;BME280;12845;52.042;6.838;2023-02-23T09:35:10;-18215.00;;;6.94;100.00
24746;BME280;12845;52.042;6.838;2023-02-23T09:37:36;-18214.72;;;6.93;100.00
24746;BME280;12845;52.042;6.838;2023-02-23T09:40:01;-18213.88;;;6.90;100.00
24746;BME280;12845;52.042;6.838;2023-02-23T09:42:30;-18215.94;;;6.98;100.00
24746;BME280;12845;52.042;6.838;2023-02-23T09:45:01;-18214.03;;;6.91;100.00
24746;BME280;12845;52.042;6.838;2023-02-23T09:47:30;-18212.78;;;6.86;100.00
24746;BME280;12845;52.042;6.838;2023-02-23T09:49:57;-18215.69;;;6.97;100.00
24746;BME280;12845;52.042;6.838;2023-02-23T09:52:25;-18216.09;;;6.98;100.00
24746;BME280;12845;52.042;6.838;2023-02-23T09:54:52;-18217.47;;;7.04;100.00
24746;BME280;12845;52.042;6.838;2023-02-23T09:57:18;-18218.03;;;7.06;100.00
24746;BME280;12845;52.042;6.838;2023-02-23T09:59:45;-18218.03;;;7.06;100.00
24746;BME280;12845;52.042;6.838;2023-02-23T10:04:47;-18218.56;;;7.08;100.00
24746;BME280;12845;52.042;6.838;2023-02-23T10:12:17;-18222.44;;;7.22;100.00
24746;BME280;12845;52.042;6.838;2023-02-23T10:20:00;-18222.44;;;7.22;100.00
24746;BME280;12845;52.042;6.838;2023-02-23T10:22:27;-18221.31;;;7.18;100.00
24746;BME280;12845;52.042;6.838;2023-02-23T10:24:57;-18221.31;;;7.18;100.00
24746;BME280;12845;52.042;6.838;2023-02-23T10:27:25;-18222.69;;;7.23;100.00
24746;BME280;12845;52.042;6.838;2023-02-23T10:29:55;-18224.63;;;7.30;100.00
24746;BME280;12845;52.042;6.838;2023-02-23T10:32:40;-18224.34;;;7.29;100.00
24746;BME280;12845;52.042;6.838;2023-02-23T10:35:12;-18226.28;;;7.36;100.00
24746;BME280;12845;52.042;6.838;2023-02-23T10:37:38;-18227.13;;;7.39;100.00
24746;BME280;12845;52.042;6.838;2023-02-23T10:40:04;-18225.88;;;7.35;100.00
24746;BME280;12845;52.042;6.838;2023-02-23T10:42:30;-18226.28;;;7.36;100.00
24746;BME280;12845;52.042;6.838;2023-02-23T10:44:56;-18226.56;;;7.37;100.00
24746;BME280;12845;52.042;6.838;2023-02-23T10:47:23;-18227.13;;;7.39;100.00
24746;BME280;12845;52.042;6.838;2023-02-23T10:49:51;-18226.97;;;7.39;100.00
24746;BME280;12845;52.042;6.838;2023-02-23T10:52:26;-18227.53;;;7.41;100.00
24746;BME280;12845;52.042;6.838;2023-02-23T10:54:53;-18227.38;;;7.40;100.00
24746;BME280;12845;52.042;6.838;2023-02-23T10:59:57;-18225.59;;;7.34;100.00
24746;BME280;12845;52.042;6.838;2023-02-23T11:02:23;-18225.31;;;7.33;100.00
24746;BME280;12845;52.042;6.838;2023-02-23T11:04:50;-18225.72;;;7.34;100.00
24746;BME280;12845;52.042;6.838;2023-02-23T11:07:18;-18226.00;;;7.35;100.00
24746;BME280;12845;52.042;6.838;2023-02-23T11:09:45;-18226.28;;;7.36;100.00
24746;BME280;12845;52.042;6.838;2023-02-23T11:12:17;-18225.59;;;7.34;100.00
24746;BME280;12845;52.042;6.838;2023-02-23T11:14:45;-18227.25;;;7.40;100.00
24746;BME280;12845;52.042;6.838;2023-02-23T11:17:27;-18228.91;;;7.46;100.00
24746;BME280;12845;52.042;6.838;2023-02-23T11:19:56;-18230.13;;;7.51;100.00
24746;BME280;12845;52.042;6.838;2023-02-23T11:22:22;-18230.13;;;7.51;100.00
24746;BME280;12845;52.042;6.838;2023-02-23T11:24:51;-18229.03;;;7.46;100.00
24746;BME280;12845;52.042;6.838;2023-02-23T11:27:22;-18230.13;;;7.51;100.00
24746;BME280;12845;52.042;6.838;2023-02-23T11:29:48;-18231.66;;;7.56;100.00
24746;BME280;12845;52.042;6.838;2023-02-23T11:34:43;-18231.94;;;7.57;100.00
24746;BME280;12845;52.042;6.838;2023-02-23T11:39:37;-18231.53;;;7.56;100.00
24746;BME280;12845;52.042;6.838;2023-02-23T11:42:18;-18232.06;;;7.58;100.00
24746;BME280;12845;52.042;6.838;2023-02-23T11:45:06;-18230.81;;;7.53;100.00
24746;BME280;12845;52.042;6.838;2023-02-23T11:47:30;-18230.69;;;7.53;100.00
24746;BME280;12845;52.042;6.838;2023-02-23T11:49:56;-18231.53;;;7.56;100.00
24746;BME280;12845;52.042;6.838;2023-02-23T11:52:22;-18232.63;;;7.60;100.00
24746;BME280;12845;52.042;6.838;2023-02-23T11:54:56;-18233.31;;;7.62;100.00
24746;BME280;12845;52.042;6.838;2023-02-23T11:57:23;-18233.31;;;7.62;100.00
24746;BME280;12845;52.042;6.838;2023-02-23T11:59:49;-18233.03;;;7.61;100.00
24746;BME280;12845;52.042;6.838;2023-02-23T12:04:43;-18232.34;;;7.59;100.00
24746;BME280;12845;52.042;6.838;2023-02-23T12:09:46;-18230.97;;;7.54;100.00
24746;BME280;12845;52.042;6.838;2023-02-23T12:12:16;-18231.53;;;7.56;100.00
24746;BME280;12845;52.042;6.838;2023-02-23T12:14:45;-18230.69;;;7.53;100.00
24746;BME280;12845;52.042;6.838;2023-02-23T12:17:17;-18231.25;;;7.55;100.00
24746;BME280;12845;52.042;6.838;2023-02-23T12:19:46;-18230.81;;;7.53;100.00
24746;BME280;12845;52.042;6.838;2023-02-23T12:22:14;-18229.59;;;7.49;100.00
24746;BME280;12845;52.042;6.838;2023-02-23T12:32:11;-18229.59;;;7.49;100.00
24746;BME280;12845;52.042;6.838;2023-02-23T12:34:41;-18230.13;;;7.51;100.00
24746;BME280;12845;52.042;6.838;2023-02-23T12:37:13;-18229.31;;;7.47;100.00
24746;BME280;12845;52.042;6.838;2023-02-23T12:39:42;-18228.91;;;7.46;100.00
24746;BME280;12845;52.042;6.838;2023-02-23T12:42:16;-18229.31;;;7.47;100.00
24746;BME280;12845;52.042;6.838;2023-02-23T12:45:00;-18228.50;;;7.44;100.00
24746;BME280;12845;52.042;6.838;2023-02-23T12:47:39;-18227.38;;;7.40;100.00
24746;BME280;12845;52.042;6.838;2023-02-23T12:50:10;-18227.13;;;7.39;100.00
24746;BME280;12845;52.042;6.838;2023-02-23T12:52:44;-18226.97;;;7.39;100.00
24746;BME280;12845;52.042;6.838;2023-02-23T12:55:11;-18226.84;;;7.38;100.00
24746;BME280;12845;52.042;6.838;2023-02-23T12:57:39;-18227.25;;;7.40;100.00
24746;BME280;12845;52.042;6.838;2023-02-23T13:00:15;-18227.78;;;7.42;100.00
24746;BME280;12845;52.042;6.838;2023-02-23T13:05:49;-18224.91;;;7.31;100.00
24746;BME280;12845;52.042;6.838;2023-02-23T13:21:21;-18222.69;;;7.23;100.00
24746;BME280;12845;52.042;6.838;2023-02-23T13:26:33;-18222.44;;;7.22;100.00
24746;BME280;12845;52.042;6.838;2023-02-23T13:31:34;-18219.94;;;7.13;100.00
24746;BME280;12845;52.042;6.838;2023-02-23T13:34:00;-18219.13;;;7.10;100.00
24746;BME280;12845;52.042;6.838;2023-02-23T13:36:27;-18217.47;;;7.04;100.00
24746;BME280;12845;52.042;6.838;2023-02-23T13:41:23;-18214.72;;;6.93;100.00
24746;BME280;12845;52.042;6.838;2023-02-23T13:44:07;-18215.00;;;6.94;100.00
24746;BME280;12845;52.042;6.838;2023-02-23T13:46:49;-18213.59;;;6.89;100.00
24746;BME280;12845;52.042;6.838;2023-02-23T13:51:46;-18214.84;;;6.94;100.00
24746;BME280;12845;52.042;6.838;2023-02-23T13:56:43;-18217.19;;;7.03;100.00
24746;BME280;12845;52.042;6.838;2023-02-23T13:59:15;-18215.41;;;6.96;100.00
24746;BME280;12845;52.042;6.838;2023-02-23T14:01:44;-18217.06;;;7.02;100.00
24746;BME280;12845;52.042;6.838;2023-02-23T14:06:40;-18217.19;;;7.03;100.00
24746;BME280;12845;52.042;6.838;2023-02-23T14:09:18;-18217.75;;;7.05;100.00
24746;BME280;12845;52.042;6.838;2023-02-23T14:11:50;-18219.66;;;7.12;100.00
24746;BME280;12845;52.042;6.838;2023-02-23T14:19:36;-18221.19;;;7.17;100.00
24746;BME280;12845;52.042;6.838;2023-02-23T14:22:05;-18222.44;;;7.22;100.00
24746;BME280;12845;52.042;6.838;2023-02-23T14:24:33;-18222.00;;;7.20;100.00
24746;BME280;12845;52.042;6.838;2023-02-23T14:29:43;-18224.63;;;7.30;100.00
24746;BME280;12845;52.042;6.838;2023-02-23T14:34:50;-18223.25;;;7.25;100.00
24746;BME280;12845;52.042;6.838;2023-02-23T14:39:41;-18224.09;;;7.28;100.00
24746;BME280;12845;52.042;6.838;2023-02-23T14:42:06;-18223.53;;;7.26;100.00
24746;BME280;12845;52.042;6.838;2023-02-23T14:44:35;-18222.97;;;7.24;100.00
24746;BME280;12845;52.042;6.838;2023-02-23T14:49:31;-18224.34;;;7.29;100.00
24746;BME280;12845;52.042;6.838;2023-02-23T14:52:11;-18224.63;;;7.30;100.00
24746;BME280;12845;52.042;6.838;2023-02-23T14:54:39;-18223.53;;;7.26;100.00
24746;BME280;12845;52.042;6.838;2023-02-23T14:57:21;-18224.34;;;7.29;100.00
24746;BME280;12845;52.042;6.838;2023-02-23T14:59:57;-18223.66;;;7.27;100.00
24746;BME280;12845;52.042;6.838;2023-02-23T15:02:23;-18225.47;;;7.33;100.00